Time;durP1;ratioP1;P1;durP2;ratioP2;P2;SDS_P1;SDS_P2;PMS_P1;PMS_P2;Temp;Humidity;BMP_temperature;BMP_pressure;BME280_temperature;BME280_humidity;BME280_pressure;Samples;Min_cycle;Max_cycle;Signal;HPM_P1;HPM_P2
2022/07/09 00:00:33;;;;;;;42.33;21.45;;;;;;;;;;5028882;28;20208;-48
2022/07/09 00:02:59;;;;;;;34.92;20.45;;;;;;;;;;5014059;28;20173;-49
2022/07/09 00:05:25;;;;;;;57.97;26.73;;;;;;;;;;5028848;28;20220;-49
2022/07/09 00:07:51;;;;;;;41.05;19.08;;;;;;;;;;5013751;28;20620;-48
2022/07/09 00:10:17;;;;;;;20.13;18.03;;;;;;;;;;5013755;28;20220;-48
2022/07/09 00:12:43;;;;;;;32.15;15.82;;;;;;;;;;5013534;28;20220;-48
2022/07/09 00:15:09;;;;;;;34.22;16.40;;;;;;;;;;5014134;28;20276;-49
2022/07/09 00:17:35;;;;;;;56.05;23.05;;;;;;;;;;5013030;28;20220;-48
2022/07/09 00:20:04;;;;;;;33.73;17.67;;;;;;;;;;5013614;28;20213;-49
2022/07/09 00:22:31;;;;;;;35.85;18.20;;;;;;;;;;5013656;28;20577;-48
2022/07/09 00:24:57;;;;;;;42.40;18.27;;;;;;;;;;5013238;28;20212;-49
2022/07/09 00:27:23;;;;;;;54.05;22.60;;;;;;;;;;5013277;28;20658;-47
2022/07/09 00:29:49;;;;;;;34.20;15.35;;;;;;;;;;5013246;28;20216;-48
2022/07/09 00:32:15;;;;;;;29.42;14.00;;;;;;;;;;5013160;28;20460;-48
2022/07/09 00:34:41;;;;;;;33.03;18.58;;;;;;;;;;5013267;28;20593;-48
2022/07/09 00:37:07;;;;;;;46.42;17.15;;;;;;;;;;5012955;28;20690;-48
2022/07/09 00:39:32;;;;;;;51.30;20.00;;;;;;;;;;5028341;28;20272;-48
2022/07/09 00:42:02;;;;;;;43.00;19.90;;;;;;;;;;5013481;28;20685;-48
2022/07/09 00:44:28;;;;;;;30.58;16.88;;;;;;;;;;5012820;28;20341;-49
2022/07/09 00:46:54;;;;;;;46.67;17.60;;;;;;;;;;5012620;28;20684;-49
2022/07/09 00:49:20;;;;;;;34.97;14.02;;;;;;;;;;5012556;28;20217;-48
2022/07/09 00:51:46;;;;;;;19.65;10.63;;;;;;;;;;5013017;28;20287;-48
2022/07/09 00:54:13;;;;;;;38.67;19.65;;;;;;;;;;5013419;28;20180;-47
2022/07/09 00:56:39;;;;;;;11.98;7.63;;;;;;;;;;5012788;28;20220;-48
2022/07/09 00:59:10;;;;;;;50.70;17.83;;;;;;;;;;5012458;28;20225;-49
2022/07/09 01:01:36;;;;;;;34.90;16.27;;;;;;;;;;5012681;28;20227;-49
2022/07/09 01:04:02;;;;;;;34.95;13.65;;;;;;;;;;5012551;28;20307;-48
2022/07/09 01:06:28;;;;;;;21.27;10.82;;;;;;;;;;5012684;28;20632;-48
2022/07/09 01:08:54;;;;;;;36.05;17.73;;;;;;;;;;5012303;28;20303;-47
2022/07/09 01:11:20;;;;;;;59.67;22.37;;;;;;;;;;5012484;28;20213;-49
2022/07/09 01:13:46;;;;;;;38.90;13.98;;;;;;;;;;5012719;28;20220;-48
2022/07/09 01:16:13;;;;;;;37.22;15.52;;;;;;;;;;5012559;28;20225;-48
2022/07/09 01:18:39;;;;;;;22.43;19.60;;;;;;;;;;5012011;28;20301;-48
2022/07/09 01:21:05;;;;;;;43.53;16.27;;;;;;;;;;5012880;28;20231;-48
2022/07/09 01:23:31;;;;;;;23.73;10.82;;;;;;;;;;5012466;28;20924;-49
2022/07/09 01:25:58;;;;;;;31.50;13.50;;;;;;;;;;5012045;28;20221;-48
2022/07/09 01:28:24;;;;;;;40.70;23.57;;;;;;;;;;5011720;28;20312;-48
2022/07/09 01:30:50;;;;;;;37.07;12.53;;;;;;;;;;5011881;28;20671;-48
2022/07/09 01:33:16;;;;;;;26.38;11.10;;;;;;;;;;5012425;28;20181;-48
2022/07/09 01:35:42;;;;;;;62.30;18.87;;;;;;;;;;5011571;28;20246;-48
2022/07/09 01:38:08;;;;;;;37.07;12.67;;;;;;;;;;5011987;28;20644;-49
2022/07/09 01:40:34;;;;;;;32.60;11.30;;;;;;;;;;5011988;28;20634;-49
2022/07/09 01:43:00;;;;;;;36.17;12.90;;;;;;;;;;5026437;28;20673;-48
2022/07/09 01:45:26;;;;;;;41.63;14.07;;;;;;;;;;5012472;28;20177;-48
2022/07/09 01:47:52;;;;;;;39.87;13.23;;;;;;;;;;5011535;28;20235;-48
2022/07/09 01:50:18;;;;;;;42.63;13.30;;;;;;;;;;5012011;28;20217;-48
2022/07/09 01:52:44;;;;;;;30.27;11.00;;;;;;;;;;5011969;28;20292;-49
2022/07/09 01:55:10;;;;;;;29.87;11.07;;;;;;;;;;5011808;28;20227;-48
2022/07/09 01:57:36;;;;;;;53.37;17.20;;;;;;;;;;5011327;28;20543;-48
2022/07/09 02:00:03;;;;;;;44.20;14.23;;;;;;;;;;5012075;28;20205;-49
2022/07/09 02:02:29;;;;;;;21.17;9.47;;;;;;;;;;5011546;28;20213;-48
2022/07/09 02:04:55;;;;;;;30.17;10.43;;;;;;;;;;5011699;28;20216;-48
2022/07/09 02:07:21;;;;;;;41.63;16.23;;;;;;;;;;5011174;28;20708;-49
2022/07/09 02:09:49;;;;;;;34.17;11.63;;;;;;;;;;5011089;28;20251;-49
2022/07/09 02:12:15;;;;;;;44.60;14.27;;;;;;;;;;5012297;28;20181;-48
2022/07/09 02:14:40;;;;;;;48.50;16.20;;;;;;;;;;5011497;28;20225;-48
2022/07/09 02:17:06;;;;;;;39.07;13.50;;;;;;;;;;5011287;28;20221;-48
2022/07/09 02:19:32;;;;;;;36.93;13.40;;;;;;;;;;5010801;28;20221;-49
2022/07/09 02:21:58;;;;;;;38.23;14.70;;;;;;;;;;5011355;28;20258;-48
2022/07/09 02:24:24;;;;;;;24.87;12.10;;;;;;;;;;5011545;28;20177;-48
2022/07/09 02:26:50;;;;;;;46.67;19.90;;;;;;;;;;5010964;28;20227;-48
2022/07/09 02:29:16;;;;;;;45.53;18.90;;;;;;;;;;5010692;28;20598;-49
2022/07/09 02:31:42;;;;;;;36.60;16.47;;;;;;;;;;5011092;28;20603;-48
2022/07/09 02:34:08;;;;;;;35.23;16.87;;;;;;;;;;5011179;28;20216;-47
2022/07/09 02:36:34;;;;;;;41.77;20.43;;;;;;;;;;5010743;28;20201;-48
2022/07/09 02:39:00;;;;;;;44.20;20.40;;;;;;;;;;5011216;28;20177;-48
2022/07/09 02:41:26;;;;;;;31.57;18.90;;;;;;;;;;5011065;28;20291;-48
2022/07/09 02:43:52;;;;;;;58.73;48.73;;;;;;;;;;5010684;28;20221;-48
2022/07/09 02:46:18;;;;;;;56.83;50.50;;;;;;;;;;5002173;28;20212;-48
2022/07/09 02:48:44;;;;;;;50.83;40.57;;;;;;;;;;5010552;28;20244;-48
2022/07/09 02:51:10;;;;;;;65.30;46.87;;;;;;;;;;5011263;28;20208;-48
2022/07/09 02:53:36;;;;;;;55.83;40.90;;;;;;;;;;5010987;28;20276;-48
2022/07/09 02:56:02;;;;;;;36.13;32.47;;;;;;;;;;5010591;28;20221;-48
2022/07/09 02:58:28;;;;;;;43.10;33.83;;;;;;;;;;5010744;28;20292;-48
2022/07/09 03:00:54;;;;;;;45.00;35.43;;;;;;;;;;5010899;28;20220;-48
2022/07/09 03:03:20;;;;;;;46.93;35.40;;;;;;;;;;5010831;28;20173;-48
2022/07/09 03:05:46;;;;;;;77.80;37.40;;;;;;;;;;5025602;28;20217;-48
2022/07/09 03:08:12;;;;;;;47.10;26.73;;;;;;;;;;5010569;28;20708;-48
2022/07/09 03:10:38;;;;;;;26.80;21.63;;;;;;;;;;5010816;28;20216;-49
2022/07/09 03:13:03;;;;;;;36.00;25.00;;;;;;;;;;5010498;28;20267;-49
2022/07/09 03:15:29;;;;;;;50.13;29.00;;;;;;;;;;5010946;28;20177;-48
2022/07/09 03:17:55;;;;;;;49.67;27.73;;;;;;;;;;5010534;28;20193;-48
2022/07/09 03:20:21;;;;;;;37.63;22.87;;;;;;;;;;5011760;28;20304;-48
2022/07/09 03:22:47;;;;;;;21.70;18.63;;;;;;;;;;5014509;28;20236;-48
2022/07/09 03:25:13;;;;;;;54.60;25.13;;;;;;;;;;5014474;28;20287;-48
2022/07/09 03:27:39;;;;;;;52.03;28.43;;;;;;;;;;5013760;28;20639;-48
2022/07/09 03:30:05;;;;;;;61.57;28.80;;;;;;;;;;5014707;28;20192;-48
2022/07/09 03:32:31;;;;;;;42.07;23.90;;;;;;;;;;5014190;28;20232;-49
2022/07/09 03:34:57;;;;;;;48.20;24.83;;;;;;;;;;5014369;28;20212;-48
2022/07/09 03:37:24;;;;;;;55.17;28.07;;;;;;;;;;5013906;28;20588;-48
2022/07/09 03:39:51;;;;;;;55.07;26.57;;;;;;;;;;5014268;28;20245;-48
2022/07/09 03:42:16;;;;;;;39.73;22.17;;;;;;;;;;5014962;28;20177;-48
2022/07/09 03:44:42;;;;;;;46.27;25.70;;;;;;;;;;5014581;28;20213;-48
2022/07/09 03:47:08;;;;;;;28.67;22.83;;;;;;;;;;5014039;28;20221;-49
2022/07/09 03:49:34;;;;;;;50.67;27.27;;;;;;;;;;5013555;28;20704;-48
2022/07/09 03:52:00;;;;;;;40.30;23.43;;;;;;;;;;5014131;28;20620;-48
2022/07/09 03:54:26;;;;;;;40.40;23.93;;;;;;;;;;5014007;28;20645;-48
2022/07/09 03:56:52;;;;;;;57.83;42.27;;;;;;;;;;5014311;28;20208;-48
2022/07/09 03:59:18;;;;;;;82.67;64.73;;;;;;;;;;5013519;28;20303;-48
2022/07/09 04:01:45;;;;;;;84.67;65.87;;;;;;;;;;5013695;28;20319;-49
2022/07/09 04:04:11;;;;;;;58.23;51.43;;;;;;;;;;5013465;28;20227;-48
2022/07/09 04:06:37;;;;;;;70.73;55.70;;;;;;;;;;5028513;28;20232;-49
2022/07/09 04:09:04;;;;;;;49.87;43.87;;;;;;;;;;5014260;28;20211;-48
2022/07/09 04:11:33;;;;;;;42.63;38.60;;;;;;;;;;5013768;28;20220;-48
2022/07/09 04:13:59;;;;;;;42.30;37.90;;;;;;;;;;5013507;28;20239;-48
2022/07/09 04:16:25;;;;;;;50.67;38.77;;;;;;;;;;5013410;28;20236;-48
2022/07/09 04:18:51;;;;;;;49.17;39.70;;;;;;;;;;5013061;28;20246;-49
2022/07/09 04:21:17;;;;;;;40.57;25.97;;;;;;;;;;5013556;28;20185;-48
2022/07/09 04:23:43;;;;;;;43.40;24.17;;;;;;;;;;5013683;28;20528;-48
2022/07/09 04:26:09;;;;;;;42.47;24.30;;;;;;;;;;5013526;28;20686;-48
2022/07/09 04:28:37;;;;;;;29.00;19.43;;;;;;;;;;5013332;28;20286;-48
2022/07/09 04:31:03;;;;;;;16.07;14.60;;;;;;;;;;5012798;28;20626;-48
2022/07/09 04:33:29;;;;;;;33.40;20.23;;;;;;;;;;5013491;28;20266;-48
2022/07/09 04:35:55;;;;;;;40.87;19.60;;;;;;;;;;5013763;28;20255;-48
2022/07/09 04:38:21;;;;;;;37.63;19.97;;;;;;;;;;5013291;28;20341;-48
2022/07/09 04:40:47;;;;;;;48.07;22.63;;;;;;;;;;5013140;28;20224;-48
2022/07/09 04:43:13;;;;;;;52.60;25.73;;;;;;;;;;5012942;28;20680;-49
2022/07/09 04:45:39;;;;;;;51.17;25.67;;;;;;;;;;5013014;28;20216;-48
2022/07/09 04:48:05;;;;;;;49.30;30.33;;;;;;;;;;5012796;28;20200;-48
2022/07/09 04:50:31;;;;;;;42.13;14.43;;;;;;;;;;5012665;28;20217;-49
2022/07/09 04:52:57;;;;;;;21.83;11.03;;;;;;;;;;5013057;28;20266;-49
2022/07/09 04:55:23;;;;;;;39.97;14.93;;;;;;;;;;5012647;28;20220;-48
2022/07/09 04:57:49;;;;;;;55.53;17.77;;;;;;;;;;5012494;28;20681;-48
2022/07/09 05:00:18;;;;;;;45.07;15.47;;;;;;;;;;5013457;28;20177;-48
2022/07/09 05:02:44;;;;;;;34.87;12.43;;;;;;;;;;5012836;28;20189;-48
2022/07/09 05:05:11;;;;;;;45.07;15.37;;;;;;;;;;5012543;28;20220;-48
2022/07/09 05:07:37;;;;;;;51.83;18.40;;;;;;;;;;5012255;28;20228;-48
2022/07/09 05:10:03;;;;;;;42.93;16.47;;;;;;;;;;5012839;28;20221;-48
2022/07/09 05:12:29;;;;;;;60.70;20.23;;;;;;;;;;5012435;28;20303;-48
2022/07/09 05:14:56;;;;;;;34.43;13.40;;;;;;;;;;5013141;28;20189;-48
2022/07/09 05:17:22;;;;;;;51.63;17.77;;;;;;;;;;5012241;28;20279;-48
2022/07/09 05:19:48;;;;;;;38.20;14.73;;;;;;;;;;5012027;28;20652;-48
2022/07/09 05:22:14;;;;;;;43.77;16.33;;;;;;;;;;5012351;28;20294;-48
2022/07/09 05:24:40;;;;;;;57.63;20.33;;;;;;;;;;5012259;28;20208;-48
2022/07/09 05:27:06;;;;;;;40.70;16.47;;;;;;;;;;5012847;28;20615;-48
2022/07/09 05:29:32;;;;;;;44.50;17.07;;;;;;;;;;5011962;28;20221;-48
2022/07/09 05:31:59;;;;;;;32.53;14.05;;;;;;;;;;5012067;28;20247;-48
2022/07/09 05:34:25;;;;;;;59.77;21.83;;;;;;;;;;5012174;28;20641;-48
2022/07/09 05:36:58;;;;;;;42.97;21.27;;;;;;;;;;5011860;28;20209;-48
2022/07/09 05:39:25;;;;;;;40.63;23.87;;;;;;;;;;5012593;28;20171;-48
2022/07/09 05:41:51;;;;;;;54.87;21.77;;;;;;;;;;5012073;28;20220;-48
2022/07/09 05:44:17;;;;;;;41.33;20.43;;;;;;;;;;5011106;28;20271;-48
2022/07/09 05:46:43;;;;;;;52.73;20.23;;;;;;;;;;5011490;28;20221;-48
2022/07/09 05:49:08;;;;;;;55.20;22.77;;;;;;;;;;5011584;28;20220;-48
2022/07/09 05:51:34;;;;;;;30.40;15.17;;;;;;;;;;5011723;28;20603;-51
2022/07/09 05:54:00;;;;;;;36.00;17.30;;;;;;;;;;5012447;28;20169;-51
2022/07/09 05:56:26;;;;;;;40.57;16.07;;;;;;;;;;5011529;28;20251;-51
2022/07/09 05:58:52;;;;;;;58.93;22.17;;;;;;;;;;5011276;28;20205;-51
2022/07/09 06:01:19;;;;;;;56.10;21.48;;;;;;;;;;5011671;28;20212;-51
2022/07/09 06:03:46;;;;;;;58.60;22.58;;;;;;;;;;5011468;28;20220;-51
2022/07/09 06:06:12;;;;;;;58.05;21.38;;;;;;;;;;5011688;28;20189;-51
2022/07/09 06:08:38;;;;;;;31.83;16.35;;;;;;;;;;5011273;28;20279;-50
2022/07/09 06:11:04;;;;;;;56.90;22.00;;;;;;;;;;5011575;28;20231;-50
2022/07/09 06:13:30;;;;;;;48.13;21.83;;;;;;;;;;5011439;28;20760;-50
2022/07/09 06:15:56;;;;;;;49.53;21.77;;;;;;;;;;5011425;28;20229;-50
2022/07/09 06:18:22;;;;;;;53.80;23.67;;;;;;;;;;5010942;28;20252;-49
2022/07/09 06:20:49;;;;;;;44.40;21.77;;;;;;;;;;5011375;28;20181;-50
2022/07/09 06:23:14;;;;;;;61.05;25.83;;;;;;;;;;5011018;28;20275;-50
2022/07/09 06:25:41;;;;;;;52.30;25.37;;;;;;;;;;5011039;28;20220;-50
2022/07/09 06:28:07;;;;;;;50.88;24.65;;;;;;;;;;5010879;28;20324;-49
2022/07/09 06:30:36;;;;;;;50.92;25.85;;;;;;;;;;5010743;28;20633;-49
2022/07/09 06:33:01;;;;;;;84.53;35.33;;;;;;;;;;5002036;28;20889;-51
2022/07/09 06:35:27;;;;;;;84.53;51.28;;;;;;;;;;4994422;28;20217;-51
2022/07/09 06:37:53;;;;;;;97.07;44.53;;;;;;;;;;4990291;28;20509;-52
2022/07/09 06:40:19;;;;;;;110.72;46.92;;;;;;;;;;4990990;28;20236;-51
2022/07/09 06:42:45;;;;;;;80.78;42.13;;;;;;;;;;4991323;28;20601;-51
2022/07/09 06:45:11;;;;;;;136.20;73.10;;;;;;;;;;5004908;28;20566;-51
2022/07/09 06:47:37;;;;;;;130.32;66.28;;;;;;;;;;4991654;28;20644;-51
2022/07/09 06:50:03;;;;;;;146.98;63.15;;;;;;;;;;4992771;28;20767;-51
2022/07/09 06:52:29;;;;;;;76.30;42.03;;;;;;;;;;4993422;28;20239;-51
2022/07/09 06:54:55;;;;;;;256.42;94.95;;;;;;;;;;4990058;28;20222;-51
2022/07/09 06:57:21;;;;;;;116.97;57.45;;;;;;;;;;4977231;28;20952;-51
2022/07/09 06:59:47;;;;;;;122.20;52.95;;;;;;;;;;4987364;28;20185;-52
2022/07/09 07:02:15;;;;;;;113.65;53.28;;;;;;;;;;4978722;28;20398;-52
2022/07/09 07:04:41;;;;;;;119.00;49.78;;;;;;;;;;4990839;28;20219;-52
2022/07/09 07:07:07;;;;;;;167.38;62.25;;;;;;;;;;4966124;28;20319;-51
2022/07/09 07:09:33;;;;;;;98.53;46.42;;;;;;;;;;4987128;28;20677;-51
2022/07/09 07:11:59;;;;;;;128.98;46.08;;;;;;;;;;4977470;28;20178;-51
2022/07/09 07:14:25;;;;;;;135.88;48.38;;;;;;;;;;4993223;28;20262;-52
2022/07/09 07:16:52;;;;;;;105.90;41.50;;;;;;;;;;4991200;28;20220;-52
2022/07/09 07:19:20;;;;;;;129.50;47.35;;;;;;;;;;4982907;28;20276;-51
2022/07/09 07:21:46;;;;;;;145.80;46.65;;;;;;;;;;4980958;28;20217;-50
2022/07/09 07:24:13;;;;;;;126.50;43.03;;;;;;;;;;4986100;28;20282;-50
2022/07/09 07:26:39;;;;;;;112.80;41.47;;;;;;;;;;4990684;28;20279;-50
2022/07/09 07:29:05;;;;;;;158.60;53.40;;;;;;;;;;4988449;28;20216;-50
2022/07/09 07:31:31;;;;;;;122.20;48.50;;;;;;;;;;4990363;28;20243;-50
2022/07/09 07:33:57;;;;;;;105.10;42.42;;;;;;;;;;4994016;28;20645;-50
2022/07/09 07:36:23;;;;;;;138.57;49.08;;;;;;;;;;4980524;28;20204;-50
2022/07/09 07:38:49;;;;;;;67.40;31.55;;;;;;;;;;4988117;28;20201;-50
2022/07/09 07:41:19;;;;;;;144.02;48.60;;;;;;;;;;4987343;28;20217;-50
2022/07/09 07:43:45;;;;;;;130.07;48.65;;;;;;;;;;4989800;28;20213;-50
2022/07/09 07:46:11;;;;;;;158.50;58.33;;;;;;;;;;4998649;28;20586;-50
2022/07/09 07:48:37;;;;;;;138.82;56.38;;;;;;;;;;4989248;28;20696;-50
2022/07/09 07:51:03;;;;;;;197.60;72.72;;;;;;;;;;4989269;28;20181;-50
2022/07/09 07:53:33;;;;;;;178.98;60.67;;;;;;;;;;4982006;28;20228;-52
2022/07/09 07:56:00;;;;;;;154.98;62.95;;;;;;;;;;4997136;28;20264;-52
2022/07/09 07:58:26;;;;;;;107.75;45.10;;;;;;;;;;4986187;28;20578;-52
2022/07/09 08:00:53;;;;;;;184.82;65.35;;;;;;;;;;4989495;28;20220;-52
2022/07/09 08:03:18;;;;;;;77.60;37.42;;;;;;;;;;4991683;28;20177;-52
2022/07/09 08:05:45;;;;;;;69.57;46.13;;;;;;;;;;4993622;28;20542;-49
2022/07/09 08:08:11;;;;;;;65.10;50.10;;;;;;;;;;4993742;28;20229;-50
2022/07/09 08:10:37;;;;;;;53.83;44.53;;;;;;;;;;4993834;28;20216;-50
2022/07/09 08:13:03;;;;;;;63.42;45.30;;;;;;;;;;4993378;28;20232;-49
2022/07/09 08:15:29;;;;;;;72.72;51.65;;;;;;;;;;5009157;28;20173;-50
2022/07/09 08:17:55;;;;;;;64.88;54.08;;;;;;;;;;4993882;28;20628;-49
2022/07/09 08:20:21;;;;;;;65.85;56.00;;;;;;;;;;4993866;28;20244;-50
2022/07/09 08:22:47;;;;;;;50.45;46.65;;;;;;;;;;4993717;28;20693;-50
2022/07/09 08:25:13;;;;;;;73.70;65.53;;;;;;;;;;4993686;28;20209;-50
2022/07/09 08:27:39;;;;;;;93.20;73.88;;;;;;;;;;4993190;28;20300;-50
2022/07/09 08:30:06;;;;;;;79.05;70.38;;;;;;;;;;4993715;28;20232;-50
2022/07/09 08:32:32;;;;;;;70.60;61.70;;;;;;;;;;4993285;28;20634;-50
2022/07/09 08:34:58;;;;;;;61.50;55.10;;;;;;;;;;4994106;28;20245;-50
2022/07/09 08:37:24;;;;;;;71.63;62.95;;;;;;;;;;4993238;28;20582;-50
2022/07/09 08:39:50;;;;;;;70.03;65.60;;;;;;;;;;4993762;28;20209;-50
2022/07/09 08:42:16;;;;;;;223.23;103.63;;;;;;;;;;4991246;28;20205;-55
2022/07/09 08:44:43;;;;;;;195.70;98.57;;;;;;;;;;4982686;28;20213;-54
2022/07/09 08:47:11;;;;;;;146.32;80.32;;;;;;;;;;4984360;28;20221;-54
2022/07/09 08:49:38;;;;;;;77.93;61.75;;;;;;;;;;4989687;28;22026;-54
2022/07/09 08:52:04;;;;;;;211.15;90.53;;;;;;;;;;4986876;28;20266;-54
2022/07/09 08:54:33;;;;;;;78.05;63.85;;;;;;;;;;4990717;28;20189;-50
2022/07/09 08:56:59;;;;;;;62.63;54.65;;;;;;;;;;5012998;28;20189;-50
2022/07/09 08:59:25;;;;;;;97.75;64.07;;;;;;;;;;5011930;28;20242;-50
2022/07/09 09:01:51;;;;;;;57.50;50.13;;;;;;;;;;5012468;28;20223;-50
2022/07/09 09:04:18;;;;;;;49.33;45.53;;;;;;;;;;5012252;28;20213;-50
2022/07/09 09:06:44;;;;;;;71.10;51.47;;;;;;;;;;5012112;28;20856;-50
2022/07/09 09:09:11;;;;;;;78.78;57.03;;;;;;;;;;5011871;28;20267;-52
2022/07/09 09:11:37;;;;;;;84.00;60.38;;;;;;;;;;5000580;28;20209;-54
2022/07/09 09:14:04;;;;;;;75.50;54.17;;;;;;;;;;4993233;28;20216;-54
2022/07/09 09:16:30;;;;;;;128.35;73.65;;;;;;;;;;4991345;28;20213;-54
2022/07/09 09:18:56;;;;;;;90.38;73.25;;;;;;;;;;4991018;28;20579;-54
2022/07/09 09:21:26;;;;;;;100.43;73.65;;;;;;;;;;4992592;28;20651;-53
2022/07/09 09:23:53;;;;;;;79.28;66.82;;;;;;;;;;4989763;28;20181;-53
2022/07/09 09:26:20;;;;;;;127.22;85.95;;;;;;;;;;4996616;28;20217;-54
2022/07/09 09:28:52;;;;;;;93.35;77.30;;;;;;;;;;5000768;28;20726;-54
2022/07/09 09:31:25;;;;;;;99.78;71.53;;;;;;;;;;4991945;28;20217;-54
2022/07/09 09:33:52;;;;;;;85.72;63.88;;;;;;;;;;4993240;28;20220;-54
2022/07/09 09:36:27;;;;;;;117.22;88.55;;;;;;;;;;4995538;28;20205;-54
2022/07/09 09:38:53;;;;;;;86.85;73.30;;;;;;;;;;4992274;28;20173;-54
2022/07/09 09:41:23;;;;;;;100.25;76.15;;;;;;;;;;4995771;28;20224;-54
2022/07/09 09:43:50;;;;;;;92.53;70.28;;;;;;;;;;4993788;28;20232;-53
2022/07/09 09:46:16;;;;;;;59.63;49.50;;;;;;;;;;4990603;28;20230;-53
2022/07/09 09:48:42;;;;;;;98.75;68.53;;;;;;;;;;5000344;28;20236;-53
2022/07/09 09:51:08;;;;;;;68.20;61.15;;;;;;;;;;4986812;28;20685;-53
2022/07/09 09:53:34;;;;;;;85.95;52.95;;;;;;;;;;4991827;28;20227;-53
2022/07/09 09:56:01;;;;;;;87.47;53.58;;;;;;;;;;4990000;28;20250;-53
2022/07/09 09:58:27;;;;;;;81.45;55.13;;;;;;;;;;4991414;28;20602;-53
2022/07/09 10:00:53;;;;;;;121.35;63.00;;;;;;;;;;4992219;28;20314;-53
2022/07/09 10:03:20;;;;;;;82.72;53.92;;;;;;;;;;4998351;28;20693;-53
2022/07/09 10:05:47;;;;;;;110.50;65.90;;;;;;;;;;4991591;28;20184;-53
2022/07/09 10:08:13;;;;;;;119.45;76.38;;;;;;;;;;4990596;28;20372;-54
2022/07/09 10:10:50;;;;;;;76.25;66.32;;;;;;;;;;4991115;28;20349;-53
2022/07/09 10:13:22;;;;;;;116.95;80.07;;;;;;;;;;4992377;28;20231;-53
2022/07/09 10:15:49;;;;;;;112.72;77.15;;;;;;;;;;4988018;28;20590;-53
2022/07/09 10:18:18;;;;;;;163.98;127.47;;;;;;;;;;4985590;28;20221;-54
2022/07/09 10:20:44;;;;;;;114.28;102.25;;;;;;;;;;4995643;28;20299;-54
2022/07/09 10:23:21;;;;;;;119.53;99.65;;;;;;;;;;4990890;28;20578;-54
2022/07/09 10:25:47;;;;;;;148.00;102.32;;;;;;;;;;4991502;28;20569;-54
2022/07/09 10:28:16;;;;;;;94.88;84.05;;;;;;;;;;4991918;28;20229;-54
2022/07/09 10:30:42;;;;;;;131.60;97.47;;;;;;;;;;4993881;28;20219;-51
2022/07/09 10:33:12;;;;;;;122.10;94.50;;;;;;;;;;4988433;28;20193;-51
2022/07/09 10:35:41;;;;;;;244.77;159.23;;;;;;;;;;4993317;28;20770;-52
2022/07/09 10:38:07;;;;;;;164.60;128.90;;;;;;;;;;4997627;28;20217;-52
2022/07/09 10:40:57;;;;;;;190.40;148.00;;;;;;;;;;4992090;28;20228;-51
2022/07/09 10:43:40;;;;;;;188.73;142.45;;;;;;;;;;4994330;28;20228;-51
2022/07/09 10:46:11;;;;;;;133.73;119.25;;;;;;;;;;5007220;28;20412;-51
2022/07/09 10:48:37;;;;;;;158.07;131.15;;;;;;;;;;4988629;28;20253;-51
2022/07/09 10:51:03;;;;;;;141.50;127.47;;;;;;;;;;4993733;28;20176;-51
2022/07/09 10:53:29;;;;;;;141.15;123.75;;;;;;;;;;4992477;28;20209;-51
2022/07/09 10:55:55;;;;;;;145.50;123.07;;;;;;;;;;4989642;28;20706;-51
2022/07/09 10:58:24;;;;;;;177.85;144.60;;;;;;;;;;4989634;28;20633;-51
2022/07/09 11:00:56;;;;;;;171.30;144.82;;;;;;;;;;4989643;28;20284;-51
2022/07/09 11:03:26;;;;;;;201.88;145.80;;;;;;;;;;4984438;28;20258;-51
2022/07/09 11:05:52;;;;;;;162.80;128.73;;;;;;;;;;4995149;28;20229;-51
2022/07/09 11:08:18;;;;;;;184.32;130.02;;;;;;;;;;4990961;28;20275;-51
2022/07/09 11:10:44;;;;;;;132.93;108.45;;;;;;;;;;5006604;28;20214;-51
2022/07/09 11:13:10;;;;;;;160.02;126.03;;;;;;;;;;4991985;28;20355;-51
2022/07/09 11:15:37;;;;;;;161.15;130.27;;;;;;;;;;4991268;28;20242;-51
2022/07/09 11:18:03;;;;;;;129.95;108.00;;;;;;;;;;4989159;28;20213;-51
2022/07/09 11:20:30;;;;;;;205.00;130.77;;;;;;;;;;4990997;28;20209;-51
2022/07/09 11:22:56;;;;;;;151.55;117.35;;;;;;;;;;4979632;28;20613;-52
2022/07/09 11:25:23;;;;;;;236.20;127.30;;;;;;;;;;4982034;28;20267;-51
2022/07/09 11:27:49;;;;;;;155.70;100.05;;;;;;;;;;4984338;28;20232;-52
2022/07/09 11:30:16;;;;;;;158.25;96.07;;;;;;;;;;4984462;28;20201;-51
2022/07/09 11:32:42;;;;;;;380.58;164.80;;;;;;;;;;4974398;28;20283;-51
2022/07/09 11:35:09;;;;;;;209.02;92.75;;;;;;;;;;4975630;28;20264;-50
2022/07/09 11:37:35;;;;;;;158.15;85.53;;;;;;;;;;4976996;28;20695;-51
2022/07/09 11:40:01;;;;;;;96.40;68.15;;;;;;;;;;4978271;28;20296;-52
2022/07/09 11:42:27;;;;;;;124.57;78.40;;;;;;;;;;4991664;28;20181;-54
2022/07/09 11:45:00;;;;;;;500.52;162.00;;;;;;;;;;4970038;28;20192;-54
2022/07/09 11:47:41;;;;;;;207.95;102.90;;;;;;;;;;4978375;28;20364;-54
2022/07/09 11:50:09;;;;;;;125.55;89.80;;;;;;;;;;4990197;28;20220;-54
2022/07/09 11:52:35;;;;;;;107.78;90.15;;;;;;;;;;4994404;28;20213;-55
2022/07/09 11:55:01;;;;;;;179.88;108.93;;;;;;;;;;4987648;28;20212;-54
2022/07/09 11:57:28;;;;;;;137.48;99.28;;;;;;;;;;4995883;28;20213;-54
2022/07/09 11:59:54;;;;;;;193.02;128.52;;;;;;;;;;4992083;28;20239;-54
2022/07/09 12:02:23;;;;;;;224.52;143.15;;;;;;;;;;4987913;28;20316;-55
2022/07/09 12:04:49;;;;;;;106.90;95.78;;;;;;;;;;4990554;28;20213;-54
2022/07/09 12:07:15;;;;;;;167.20;113.78;;;;;;;;;;4983726;28;20230;-54
2022/07/09 12:09:41;;;;;;;154.13;111.00;;;;;;;;;;4990894;28;20221;-55
2022/07/09 12:12:07;;;;;;;120.43;107.32;;;;;;;;;;4998731;28;20189;-54
2022/07/09 12:14:33;;;;;;;108.47;97.85;;;;;;;;;;4989404;28;20388;-54
2022/07/09 12:16:59;;;;;;;171.45;129.75;;;;;;;;;;4995350;28;20213;-54
2022/07/09 12:19:25;;;;;;;186.32;151.23;;;;;;;;;;4990364;28;20243;-54
2022/07/09 12:21:51;;;;;;;210.00;152.65;;;;;;;;;;4994761;28;20245;-55
2022/07/09 12:24:17;;;;;;;284.63;183.27;;;;;;;;;;4993338;28;20608;-54
2022/07/09 12:26:43;;;;;;;183.30;149.02;;;;;;;;;;5005528;28;20292;-54
2022/07/09 12:29:09;;;;;;;231.98;165.63;;;;;;;;;;5011273;28;20236;-54
2022/07/09 12:31:37;;;;;;;234.45;174.05;;;;;;;;;;4989681;28;20714;-54
2022/07/09 12:34:03;;;;;;;270.50;192.35;;;;;;;;;;4986427;28;20708;-53
2022/07/09 12:36:30;;;;;;;221.45;169.23;;;;;;;;;;4990291;28;20197;-54
2022/07/09 12:38:56;;;;;;;379.55;229.18;;;;;;;;;;4990808;28;20186;-54
2022/07/09 12:41:22;;;;;;;285.35;189.90;;;;;;;;;;4997998;28;20283;-54
2022/07/09 12:43:47;;;;;;;334.38;218.70;;;;;;;;;;4983349;28;20220;-54
2022/07/09 12:46:14;;;;;;;267.20;195.73;;;;;;;;;;4992772;28;20693;-54
2022/07/09 12:48:39;;;;;;;304.08;213.50;;;;;;;;;;4994841;28;20234;-54
2022/07/09 12:51:05;;;;;;;314.80;216.43;;;;;;;;;;4992435;28;20173;-54
2022/07/09 12:53:31;;;;;;;274.88;201.40;;;;;;;;;;4998580;28;20213;-55
2022/07/09 12:55:57;;;;;;;309.70;206.40;;;;;;;;;;4988781;28;20223;-55
2022/07/09 12:58:23;;;;;;;279.67;204.98;;;;;;;;;;4995521;28;20247;-55
2022/07/09 13:00:49;;;;;;;298.05;218.13;;;;;;;;;;4989207;28;20224;-54
2022/07/09 13:03:15;;;;;;;313.90;218.43;;;;;;;;;;4987128;28;20192;-55
2022/07/09 13:05:41;;;;;;;397.70;254.50;;;;;;;;;;4988324;28;20459;-55
2022/07/09 13:08:07;;;;;;;342.88;228.75;;;;;;;;;;4985902;28;20220;-54
2022/07/09 13:10:33;;;;;;;361.20;243.45;;;;;;;;;;4982077;28;20309;-55
2022/07/09 13:13:00;;;;;;;371.77;244.75;;;;;;;;;;4983450;28;20213;-54
2022/07/09 13:15:25;;;;;;;362.25;248.90;;;;;;;;;;4988209;28;20200;-55
2022/07/09 13:17:51;;;;;;;353.73;245.52;;;;;;;;;;4985940;28;20205;-55
2022/07/09 13:20:18;;;;;;;383.67;258.83;;;;;;;;;;4989637;28;20744;-55
2022/07/09 13:22:44;;;;;;;363.40;249.50;;;;;;;;;;4992778;28;20577;-55
2022/07/09 13:25:10;;;;;;;413.98;266.70;;;;;;;;;;4981612;28;20225;-54
2022/07/09 13:27:36;;;;;;;373.27;251.32;;;;;;;;;;4990548;28;20215;-55
2022/07/09 13:30:02;;;;;;;375.27;243.93;;;;;;;;;;4993926;28;20197;-50
2022/07/09 13:32:28;;;;;;;341.48;237.95;;;;;;;;;;5002683;28;20358;-48
2022/07/09 13:34:54;;;;;;;360.55;248.38;;;;;;;;;;4990551;28;20573;-52
2022/07/09 13:37:20;;;;;;;362.77;237.57;;;;;;;;;;4981219;28;20225;-52
2022/07/09 13:39:46;;;;;;;327.95;224.13;;;;;;;;;;4982489;28;20938;-51
2022/07/09 13:42:12;;;;;;;428.35;250.35;;;;;;;;;;4992495;28;20186;-52
2022/07/09 13:44:39;;;;;;;326.45;224.98;;;;;;;;;;4989726;28;20217;-52
2022/07/09 13:47:05;;;;;;;385.42;256.02;;;;;;;;;;4980176;28;20941;-51
2022/07/09 13:49:31;;;;;;;330.52;242.20;;;;;;;;;;4981744;28;20709;-50
2022/07/09 13:52:00;;;;;;;269.27;205.77;;;;;;;;;;4992088;28;20217;-50
2022/07/09 13:54:25;;;;;;;266.15;201.68;;;;;;;;;;4990020;28;20209;-50
2022/07/09 13:56:51;;;;;;;262.40;212.55;;;;;;;;;;4992158;28;20244;-50
2022/07/09 13:59:17;;;;;;;331.45;237.43;;;;;;;;;;4987410;28;20206;-50
2022/07/09 14:01:43;;;;;;;284.27;219.93;;;;;;;;;;4989317;28;20705;-50
2022/07/09 14:04:09;;;;;;;313.92;219.27;;;;;;;;;;4985652;28;20237;-50